sensor_id;sensor_type;location;lat;lon;timestamp;P1;durP1;ratioP1;P2;durP2;ratioP2
51368;SDS011;37459;51.416;5.502;2022-12-16T00:00:39;60.88;;;34.00;;
51368;SDS011;37459;51.416;5.502;2022-12-16T00:03:06;55.92;;;32.33;;
51368;SDS011;37459;51.416;5.502;2022-12-16T00:05:34;59.00;;;33.42;;
51368;SDS011;37459;51.416;5.502;2022-12-16T00:08:01;60.30;;;33.42;;
51368;SDS011;37459;51.416;5.502;2022-12-16T00:10:28;57.60;;;31.73;;
51368;SDS011;37459;51.416;5.502;2022-12-16T00:13:15;58.22;;;32.65;;
51368;SDS011;37459;51.416;5.502;2022-12-16T00:15:41;59.63;;;33.13;;
51368;SDS011;37459;51.416;5.502;2022-12-16T00:18:08;56.00;;;32.30;;
51368;SDS011;37459;51.416;5.502;2022-12-16T00:20:36;58.42;;;32.90;;
51368;SDS011;37459;51.416;5.502;2022-12-16T00:23:02;56.88;;;31.92;;
51368;SDS011;37459;51.416;5.502;2022-12-16T00:25:29;57.45;;;33.30;;
51368;SDS011;37459;51.416;5.502;2022-12-16T00:27:55;59.28;;;33.90;;
51368;SDS011;37459;51.416;5.502;2022-12-16T00:30:22;56.95;;;31.73;;
51368;SDS011;37459;51.416;5.502;2022-12-16T00:32:48;55.00;;;32.65;;
51368;SDS011;37459;51.416;5.502;2022-12-16T00:35:15;59.03;;;33.65;;
51368;SDS011;37459;51.416;5.502;2022-12-16T00:37:43;59.28;;;33.20;;
51368;SDS011;37459;51.416;5.502;2022-12-16T00:40:12;56.83;;;33.05;;
51368;SDS011;37459;51.416;5.502;2022-12-16T00:42:38;54.17;;;32.80;;
51368;SDS011;37459;51.416;5.502;2022-12-16T00:45:05;60.35;;;33.40;;
51368;SDS011;37459;51.416;5.502;2022-12-16T00:47:32;59.63;;;34.40;;
51368;SDS011;37459;51.416;5.502;2022-12-16T00:49:58;59.08;;;33.30;;
51368;SDS011;37459;51.416;5.502;2022-12-16T00:52:25;55.42;;;32.45;;
51368;SDS011;37459;51.416;5.502;2022-12-16T00:54:53;56.03;;;33.55;;
51368;SDS011;37459;51.416;5.502;2022-12-16T00:57:20;60.35;;;33.47;;
51368;SDS011;37459;51.416;5.502;2022-12-16T00:59:47;56.42;;;32.20;;
51368;SDS011;37459;51.416;5.502;2022-12-16T01:02:14;56.72;;;32.67;;
51368;SDS011;37459;51.416;5.502;2022-12-16T01:04:40;58.80;;;33.35;;
51368;SDS011;37459;51.416;5.502;2022-12-16T01:07:07;59.92;;;33.90;;
51368;SDS011;37459;51.416;5.502;2022-12-16T01:09:33;55.17;;;32.70;;
51368;SDS011;37459;51.416;5.502;2022-12-16T01:12:02;54.92;;;31.88;;
51368;SDS011;37459;51.416;5.502;2022-12-16T01:14:28;56.75;;;33.70;;
51368;SDS011;37459;51.416;5.502;2022-12-16T01:16:55;55.70;;;32.25;;
51368;SDS011;37459;51.416;5.502;2022-12-16T01:19:21;55.88;;;32.55;;
51368;SDS011;37459;51.416;5.502;2022-12-16T01:21:48;57.78;;;33.33;;
51368;SDS011;37459;51.416;5.502;2022-12-16T01:24:15;54.28;;;33.22;;
51368;SDS011;37459;51.416;5.502;2022-12-16T01:26:41;61.63;;;34.22;;
51368;SDS011;37459;51.416;5.502;2022-12-16T01:29:09;56.67;;;32.95;;
51368;SDS011;37459;51.416;5.502;2022-12-16T01:31:35;56.55;;;32.53;;
51368;SDS011;37459;51.416;5.502;2022-12-16T01:34:02;61.88;;;34.33;;
51368;SDS011;37459;51.416;5.502;2022-12-16T01:36:29;57.03;;;33.92;;
51368;SDS011;37459;51.416;5.502;2022-12-16T01:38:56;60.28;;;33.05;;
51368;SDS011;37459;51.416;5.502;2022-12-16T01:41:22;56.95;;;32.63;;
51368;SDS011;37459;51.416;5.502;2022-12-16T01:43:49;57.38;;;32.63;;
51368;SDS011;37459;51.416;5.502;2022-12-16T01:46:19;63.72;;;34.25;;
51368;SDS011;37459;51.416;5.502;2022-12-16T01:48:49;59.58;;;34.58;;
51368;SDS011;37459;51.416;5.502;2022-12-16T01:51:20;62.40;;;33.25;;
51368;SDS011;37459;51.416;5.502;2022-12-16T01:53:51;57.05;;;32.78;;
51368;SDS011;37459;51.416;5.502;2022-12-16T01:56:22;60.83;;;33.85;;
51368;SDS011;37459;51.416;5.502;2022-12-16T01:58:53;55.13;;;32.60;;
51368;SDS011;37459;51.416;5.502;2022-12-16T02:01:22;54.85;;;34.10;;
51368;SDS011;37459;51.416;5.502;2022-12-16T02:03:49;58.22;;;33.17;;
51368;SDS011;37459;51.416;5.502;2022-12-16T02:06:19;58.63;;;34.60;;
51368;SDS011;37459;51.416;5.502;2022-12-16T02:08:46;57.28;;;33.88;;
51368;SDS011;37459;51.416;5.502;2022-12-16T02:11:20;57.20;;;33.28;;
51368;SDS011;37459;51.416;5.502;2022-12-16T02:17:05;57.47;;;33.40;;
51368;SDS011;37459;51.416;5.502;2022-12-16T02:19:48;55.85;;;33.03;;
51368;SDS011;37459;51.416;5.502;2022-12-16T02:22:36;57.97;;;33.90;;
51368;SDS011;37459;51.416;5.502;2022-12-16T02:28:17;58.83;;;32.55;;
51368;SDS011;37459;51.416;5.502;2022-12-16T02:31:07;59.58;;;34.25;;
51368;SDS011;37459;51.416;5.502;2022-12-16T02:36:32;59.90;;;34.35;;
51368;SDS011;37459;51.416;5.502;2022-12-16T02:39:11;62.95;;;36.03;;
51368;SDS011;37459;51.416;5.502;2022-12-16T02:41:43;62.53;;;36.70;;
51368;SDS011;37459;51.416;5.502;2022-12-16T02:44:15;59.08;;;35.30;;
51368;SDS011;37459;51.416;5.502;2022-12-16T02:46:50;61.38;;;36.90;;
51368;SDS011;37459;51.416;5.502;2022-12-16T02:52:12;63.05;;;36.35;;
51368;SDS011;37459;51.416;5.502;2022-12-16T02:54:39;66.47;;;36.17;;
51368;SDS011;37459;51.416;5.502;2022-12-16T02:57:08;60.15;;;36.78;;
51368;SDS011;37459;51.416;5.502;2022-12-16T02:59:47;65.57;;;36.55;;
51368;SDS011;37459;51.416;5.502;2022-12-16T03:02:25;64.47;;;37.05;;
51368;SDS011;37459;51.416;5.502;2022-12-16T03:05:04;68.82;;;37.15;;
51368;SDS011;37459;51.416;5.502;2022-12-16T03:07:36;66.80;;;37.78;;
51368;SDS011;37459;51.416;5.502;2022-12-16T03:10:05;65.40;;;36.47;;
51368;SDS011;37459;51.416;5.502;2022-12-16T03:12:36;67.75;;;37.88;;
51368;SDS011;37459;51.416;5.502;2022-12-16T03:15:08;70.35;;;39.85;;
51368;SDS011;37459;51.416;5.502;2022-12-16T03:17:38;66.55;;;37.83;;
51368;SDS011;37459;51.416;5.502;2022-12-16T03:20:06;63.95;;;37.28;;
51368;SDS011;37459;51.416;5.502;2022-12-16T03:22:37;66.53;;;38.53;;
51368;SDS011;37459;51.416;5.502;2022-12-16T03:25:08;70.57;;;39.38;;
51368;SDS011;37459;51.416;5.502;2022-12-16T03:27:38;65.97;;;37.45;;
51368;SDS011;37459;51.416;5.502;2022-12-16T03:30:12;68.25;;;38.10;;
51368;SDS011;37459;51.416;5.502;2022-12-16T03:32:45;66.70;;;37.72;;
51368;SDS011;37459;51.416;5.502;2022-12-16T03:35:17;65.40;;;38.28;;
51368;SDS011;37459;51.416;5.502;2022-12-16T03:37:48;63.53;;;37.30;;
51368;SDS011;37459;51.416;5.502;2022-12-16T03:40:19;60.75;;;37.55;;
51368;SDS011;37459;51.416;5.502;2022-12-16T03:42:47;66.00;;;39.63;;
51368;SDS011;37459;51.416;5.502;2022-12-16T03:45:18;64.32;;;38.80;;
51368;SDS011;37459;51.416;5.502;2022-12-16T03:47:50;65.50;;;38.60;;
51368;SDS011;37459;51.416;5.502;2022-12-16T03:50:17;64.13;;;39.17;;
51368;SDS011;37459;51.416;5.502;2022-12-16T03:52:48;62.67;;;38.22;;
51368;SDS011;37459;51.416;5.502;2022-12-16T03:55:14;69.50;;;38.13;;
51368;SDS011;37459;51.416;5.502;2022-12-16T03:57:41;60.15;;;37.22;;
51368;SDS011;37459;51.416;5.502;2022-12-16T04:00:08;63.42;;;38.42;;
51368;SDS011;37459;51.416;5.502;2022-12-16T04:02:36;65.53;;;37.55;;
51368;SDS011;37459;51.416;5.502;2022-12-16T04:05:04;62.58;;;36.35;;
51368;SDS011;37459;51.416;5.502;2022-12-16T04:07:31;61.58;;;37.25;;
51368;SDS011;37459;51.416;5.502;2022-12-16T04:09:58;64.03;;;37.05;;
51368;SDS011;37459;51.416;5.502;2022-12-16T04:12:24;65.40;;;38.20;;
51368;SDS011;37459;51.416;5.502;2022-12-16T04:15:17;61.58;;;38.17;;
51368;SDS011;37459;51.416;5.502;2022-12-16T04:18:02;64.50;;;37.22;;
51368;SDS011;37459;51.416;5.502;2022-12-16T04:20:48;65.15;;;38.42;;
51368;SDS011;37459;51.416;5.502;2022-12-16T04:23:35;61.33;;;36.67;;
51368;SDS011;37459;51.416;5.502;2022-12-16T04:26:22;65.75;;;37.75;;
51368;SDS011;37459;51.416;5.502;2022-12-16T04:28:48;67.57;;;38.83;;
51368;SDS011;37459;51.416;5.502;2022-12-16T04:31:15;66.60;;;38.38;;
51368;SDS011;37459;51.416;5.502;2022-12-16T04:33:41;64.47;;;38.22;;
51368;SDS011;37459;51.416;5.502;2022-12-16T04:36:27;63.55;;;36.72;;
51368;SDS011;37459;51.416;5.502;2022-12-16T04:39:11;67.47;;;40.17;;
51368;SDS011;37459;51.416;5.502;2022-12-16T04:41:55;70.25;;;38.58;;
51368;SDS011;37459;51.416;5.502;2022-12-16T04:44:39;63.40;;;37.70;;
51368;SDS011;37459;51.416;5.502;2022-12-16T04:47:23;67.45;;;38.45;;
51368;SDS011;37459;51.416;5.502;2022-12-16T04:50:15;66.82;;;38.28;;
51368;SDS011;37459;51.416;5.502;2022-12-16T04:53:01;71.38;;;40.53;;
51368;SDS011;37459;51.416;5.502;2022-12-16T04:55:44;74.28;;;40.03;;
51368;SDS011;37459;51.416;5.502;2022-12-16T04:58:28;75.22;;;40.10;;
51368;SDS011;37459;51.416;5.502;2022-12-16T05:01:12;81.63;;;41.25;;
51368;SDS011;37459;51.416;5.502;2022-12-16T05:03:57;87.03;;;41.35;;
51368;SDS011;37459;51.416;5.502;2022-12-16T05:06:41;83.53;;;41.53;;
51368;SDS011;37459;51.416;5.502;2022-12-16T05:09:26;78.80;;;40.65;;
51368;SDS011;37459;51.416;5.502;2022-12-16T05:12:10;72.53;;;34.40;;
51368;SDS011;37459;51.416;5.502;2022-12-16T05:14:54;87.68;;;42.20;;
51368;SDS011;37459;51.416;5.502;2022-12-16T05:17:38;81.22;;;42.05;;
51368;SDS011;37459;51.416;5.502;2022-12-16T05:20:21;90.55;;;42.97;;
51368;SDS011;37459;51.416;5.502;2022-12-16T05:23:06;91.25;;;41.33;;
51368;SDS011;37459;51.416;5.502;2022-12-16T05:25:51;86.80;;;42.40;;
51368;SDS011;37459;51.416;5.502;2022-12-16T05:28:35;90.30;;;41.25;;
51368;SDS011;37459;51.416;5.502;2022-12-16T05:31:19;100.43;;;42.45;;
51368;SDS011;37459;51.416;5.502;2022-12-16T05:34:03;95.18;;;42.85;;
51368;SDS011;37459;51.416;5.502;2022-12-16T05:36:46;93.28;;;42.83;;
51368;SDS011;37459;51.416;5.502;2022-12-16T05:39:30;97.22;;;41.83;;
51368;SDS011;37459;51.416;5.502;2022-12-16T05:42:16;96.95;;;41.88;;
51368;SDS011;37459;51.416;5.502;2022-12-16T05:44:59;98.90;;;42.80;;
51368;SDS011;37459;51.416;5.502;2022-12-16T05:47:46;93.15;;;43.33;;
51368;SDS011;37459;51.416;5.502;2022-12-16T05:50:30;96.30;;;42.58;;
51368;SDS011;37459;51.416;5.502;2022-12-16T05:53:11;86.68;;;40.85;;
51368;SDS011;37459;51.416;5.502;2022-12-16T05:55:55;85.63;;;40.05;;
51368;SDS011;37459;51.416;5.502;2022-12-16T05:58:40;82.78;;;40.30;;
51368;SDS011;37459;51.416;5.502;2022-12-16T06:01:24;81.60;;;39.10;;
51368;SDS011;37459;51.416;5.502;2022-12-16T06:04:08;85.75;;;39.83;;
51368;SDS011;37459;51.416;5.502;2022-12-16T06:06:52;84.57;;;38.92;;
51368;SDS011;37459;51.416;5.502;2022-12-16T06:09:36;86.43;;;39.90;;
51368;SDS011;37459;51.416;5.502;2022-12-16T06:12:20;91.55;;;39.65;;
51368;SDS011;37459;51.416;5.502;2022-12-16T06:15:05;82.63;;;38.22;;
51368;SDS011;37459;51.416;5.502;2022-12-16T06:17:50;82.93;;;41.38;;
51368;SDS011;37459;51.416;5.502;2022-12-16T06:20:36;82.68;;;41.08;;
51368;SDS011;37459;51.416;5.502;2022-12-16T06:23:21;80.30;;;38.33;;
51368;SDS011;37459;51.416;5.502;2022-12-16T06:26:05;82.28;;;40.42;;
51368;SDS011;37459;51.416;5.502;2022-12-16T06:28:49;85.47;;;41.40;;
51368;SDS011;37459;51.416;5.502;2022-12-16T06:31:35;81.95;;;39.30;;
51368;SDS011;37459;51.416;5.502;2022-12-16T06:34:19;78.15;;;38.63;;
51368;SDS011;37459;51.416;5.502;2022-12-16T06:37:02;76.15;;;39.75;;
51368;SDS011;37459;51.416;5.502;2022-12-16T06:39:47;83.13;;;41.05;;
51368;SDS011;37459;51.416;5.502;2022-12-16T06:42:30;80.50;;;39.75;;
51368;SDS011;37459;51.416;5.502;2022-12-16T06:45:15;77.03;;;38.30;;
51368;SDS011;37459;51.416;5.502;2022-12-16T06:48:00;79.60;;;38.88;;
51368;SDS011;37459;51.416;5.502;2022-12-16T06:50:44;75.15;;;37.53;;
51368;SDS011;37459;51.416;5.502;2022-12-16T06:53:28;77.55;;;38.85;;
51368;SDS011;37459;51.416;5.502;2022-12-16T06:56:12;82.40;;;39.50;;
51368;SDS011;37459;51.416;5.502;2022-12-16T06:58:56;72.30;;;39.55;;
51368;SDS011;37459;51.416;5.502;2022-12-16T07:01:40;83.47;;;39.78;;
51368;SDS011;37459;51.416;5.502;2022-12-16T07:04:25;76.80;;;39.38;;
51368;SDS011;37459;51.416;5.502;2022-12-16T07:07:09;63.20;;;31.02;;
51368;SDS011;37459;51.416;5.502;2022-12-16T07:09:53;90.07;;;38.53;;
51368;SDS011;37459;51.416;5.502;2022-12-16T07:12:38;73.93;;;36.47;;
51368;SDS011;37459;51.416;5.502;2022-12-16T07:15:21;64.97;;;33.20;;
51368;SDS011;37459;51.416;5.502;2022-12-16T07:18:06;64.25;;;31.80;;
51368;SDS011;37459;51.416;5.502;2022-12-16T07:20:51;59.63;;;31.27;;
51368;SDS011;37459;51.416;5.502;2022-12-16T07:23:35;61.90;;;32.27;;
51368;SDS011;37459;51.416;5.502;2022-12-16T07:26:19;57.83;;;32.15;;
51368;SDS011;37459;51.416;5.502;2022-12-16T07:29:03;59.72;;;32.33;;
51368;SDS011;37459;51.416;5.502;2022-12-16T07:31:47;62.95;;;33.58;;
51368;SDS011;37459;51.416;5.502;2022-12-16T07:34:31;66.05;;;34.15;;
51368;SDS011;37459;51.416;5.502;2022-12-16T07:37:16;64.32;;;34.20;;
51368;SDS011;37459;51.416;5.502;2022-12-16T07:40:00;49.10;;;27.10;;
51368;SDS011;37459;51.416;5.502;2022-12-16T07:42:44;65.25;;;36.90;;
51368;SDS011;37459;51.416;5.502;2022-12-16T07:45:25;69.35;;;35.88;;
51368;SDS011;37459;51.416;5.502;2022-12-16T07:48:09;65.57;;;34.80;;
51368;SDS011;37459;51.416;5.502;2022-12-16T07:50:53;66.25;;;35.80;;
51368;SDS011;37459;51.416;5.502;2022-12-16T07:53:38;64.65;;;35.28;;
51368;SDS011;37459;51.416;5.502;2022-12-16T07:56:22;64.27;;;34.73;;
51368;SDS011;37459;51.416;5.502;2022-12-16T07:59:06;64.03;;;32.70;;
51368;SDS011;37459;51.416;5.502;2022-12-16T08:01:50;65.20;;;30.17;;
51368;SDS011;37459;51.416;5.502;2022-12-16T08:04:34;72.50;;;33.58;;
51368;SDS011;37459;51.416;5.502;2022-12-16T08:07:18;60.60;;;31.60;;
51368;SDS011;37459;51.416;5.502;2022-12-16T08:10:04;64.63;;;30.88;;
51368;SDS011;37459;51.416;5.502;2022-12-16T08:15:32;62.67;;;31.05;;
51368;SDS011;37459;51.416;5.502;2022-12-16T08:18:16;66.43;;;31.63;;
51368;SDS011;37459;51.416;5.502;2022-12-16T08:21:00;67.72;;;32.95;;
51368;SDS011;37459;51.416;5.502;2022-12-16T08:23:44;71.15;;;34.90;;
51368;SDS011;37459;51.416;5.502;2022-12-16T08:26:29;66.65;;;34.00;;
51368;SDS011;37459;51.416;5.502;2022-12-16T08:29:13;65.82;;;34.17;;
51368;SDS011;37459;51.416;5.502;2022-12-16T08:31:57;65.10;;;33.83;;
51368;SDS011;37459;51.416;5.502;2022-12-16T08:34:42;63.00;;;33.38;;
51368;SDS011;37459;51.416;5.502;2022-12-16T08:37:25;60.83;;;32.92;;
51368;SDS011;37459;51.416;5.502;2022-12-16T08:40:24;60.88;;;33.47;;
51368;SDS011;37459;51.416;5.502;2022-12-16T08:43:12;59.50;;;31.80;;
51368;SDS011;37459;51.416;5.502;2022-12-16T08:45:55;50.83;;;25.77;;
51368;SDS011;37459;51.416;5.502;2022-12-16T08:48:40;63.33;;;32.55;;
51368;SDS011;37459;51.416;5.502;2022-12-16T08:51:24;57.20;;;32.58;;
51368;SDS011;37459;51.416;5.502;2022-12-16T08:54:07;60.17;;;31.63;;
51368;SDS011;37459;51.416;5.502;2022-12-16T08:56:51;58.03;;;32.08;;
51368;SDS011;37459;51.416;5.502;2022-12-16T08:59:37;61.42;;;32.80;;
51368;SDS011;37459;51.416;5.502;2022-12-16T09:02:20;67.97;;;35.45;;
51368;SDS011;37459;51.416;5.502;2022-12-16T09:05:05;68.15;;;34.92;;
51368;SDS011;37459;51.416;5.502;2022-12-16T09:07:49;70.82;;;35.97;;
51368;SDS011;37459;51.416;5.502;2022-12-16T09:10:33;61.17;;;33.63;;
51368;SDS011;37459;51.416;5.502;2022-12-16T09:13:17;64.13;;;34.67;;
51368;SDS011;37459;51.416;5.502;2022-12-16T09:16:02;58.33;;;32.17;;
51368;SDS011;37459;51.416;5.502;2022-12-16T09:18:46;63.70;;;34.40;;
51368;SDS011;37459;51.416;5.502;2022-12-16T09:21:30;58.42;;;33.10;;
51368;SDS011;37459;51.416;5.502;2022-12-16T09:24:15;55.90;;;31.77;;
51368;SDS011;37459;51.416;5.502;2022-12-16T09:26:59;58.40;;;31.88;;
51368;SDS011;37459;51.416;5.502;2022-12-16T09:29:43;52.47;;;31.17;;
51368;SDS011;37459;51.416;5.502;2022-12-16T09:32:28;61.03;;;33.03;;
51368;SDS011;37459;51.416;5.502;2022-12-16T09:35:14;58.35;;;32.22;;
51368;SDS011;37459;51.416;5.502;2022-12-16T09:37:58;60.30;;;33.25;;
51368;SDS011;37459;51.416;5.502;2022-12-16T09:40:42;59.55;;;32.60;;
51368;SDS011;37459;51.416;5.502;2022-12-16T09:43:44;56.10;;;31.85;;
51368;SDS011;37459;51.416;5.502;2022-12-16T09:46:41;56.78;;;30.77;;
51368;SDS011;37459;51.416;5.502;2022-12-16T09:49:39;57.97;;;33.08;;
51368;SDS011;37459;51.416;5.502;2022-12-16T09:52:25;57.42;;;32.33;;
51368;SDS011;37459;51.416;5.502;2022-12-16T09:55:18;57.78;;;32.72;;
51368;SDS011;37459;51.416;5.502;2022-12-16T09:58:08;61.83;;;32.90;;
51368;SDS011;37459;51.416;5.502;2022-12-16T10:00:54;66.70;;;34.90;;
51368;SDS011;37459;51.416;5.502;2022-12-16T10:03:38;63.38;;;34.50;;
51368;SDS011;37459;51.416;5.502;2022-12-16T10:06:28;68.82;;;36.45;;
51368;SDS011;37459;51.416;5.502;2022-12-16T10:09:19;65.03;;;33.53;;
51368;SDS011;37459;51.416;5.502;2022-12-16T10:12:10;62.28;;;34.72;;
51368;SDS011;37459;51.416;5.502;2022-12-16T10:15:02;66.80;;;36.05;;
51368;SDS011;37459;51.416;5.502;2022-12-16T10:18:01;62.08;;;35.35;;
51368;SDS011;37459;51.416;5.502;2022-12-16T10:20:48;62.60;;;34.88;;
51368;SDS011;37459;51.416;5.502;2022-12-16T10:23:37;62.65;;;35.17;;
51368;SDS011;37459;51.416;5.502;2022-12-16T10:26:27;61.97;;;34.92;;
51368;SDS011;37459;51.416;5.502;2022-12-16T10:29:20;64.22;;;34.17;;
51368;SDS011;37459;51.416;5.502;2022-12-16T10:32:11;60.22;;;34.53;;
51368;SDS011;37459;51.416;5.502;2022-12-16T10:34:59;60.67;;;34.95;;
51368;SDS011;37459;51.416;5.502;2022-12-16T10:37:44;63.50;;;35.55;;
51368;SDS011;37459;51.416;5.502;2022-12-16T10:40:30;62.42;;;35.60;;
51368;SDS011;37459;51.416;5.502;2022-12-16T10:43:18;63.90;;;35.92;;
51368;SDS011;37459;51.416;5.502;2022-12-16T10:46:11;64.22;;;36.05;;
51368;SDS011;37459;51.416;5.502;2022-12-16T10:49:00;62.13;;;34.83;;
51368;SDS011;37459;51.416;5.502;2022-12-16T10:51:44;67.80;;;36.50;;
51368;SDS011;37459;51.416;5.502;2022-12-16T10:54:29;61.25;;;33.45;;
51368;SDS011;37459;51.416;5.502;2022-12-16T10:57:19;55.28;;;32.92;;
51368;SDS011;37459;51.416;5.502;2022-12-16T11:00:13;56.40;;;32.28;;
51368;SDS011;37459;51.416;5.502;2022-12-16T11:06:01;58.88;;;32.70;;
51368;SDS011;37459;51.416;5.502;2022-12-16T11:08:45;59.20;;;33.25;;
51368;SDS011;37459;51.416;5.502;2022-12-16T11:11:29;58.08;;;32.72;;
51368;SDS011;37459;51.416;5.502;2022-12-16T11:14:16;57.50;;;33.90;;
51368;SDS011;37459;51.416;5.502;2022-12-16T11:17:11;55.78;;;30.98;;
51368;SDS011;37459;51.416;5.502;2022-12-16T11:20:14;57.30;;;32.05;;
51368;SDS011;37459;51.416;5.502;2022-12-16T11:23:08;57.47;;;32.58;;
51368;SDS011;37459;51.416;5.502;2022-12-16T11:26:06;57.05;;;33.65;;
51368;SDS011;37459;51.416;5.502;2022-12-16T11:29:07;57.65;;;32.33;;
51368;SDS011;37459;51.416;5.502;2022-12-16T11:31:55;57.72;;;32.10;;
51368;SDS011;37459;51.416;5.502;2022-12-16T11:34:43;57.25;;;32.33;;
51368;SDS011;37459;51.416;5.502;2022-12-16T11:37:32;60.67;;;33.65;;
51368;SDS011;37459;51.416;5.502;2022-12-16T11:40:17;57.08;;;31.58;;
51368;SDS011;37459;51.416;5.502;2022-12-16T11:43:02;50.25;;;30.83;;
51368;SDS011;37459;51.416;5.502;2022-12-16T11:45:48;53.60;;;31.00;;
51368;SDS011;37459;51.416;5.502;2022-12-16T11:48:37;53.10;;;31.33;;
51368;SDS011;37459;51.416;5.502;2022-12-16T11:51:26;50.90;;;29.63;;
51368;SDS011;37459;51.416;5.502;2022-12-16T11:54:16;51.13;;;29.55;;
51368;SDS011;37459;51.416;5.502;2022-12-16T11:57:05;47.17;;;29.45;;
51368;SDS011;37459;51.416;5.502;2022-12-16T12:00:02;45.85;;;28.13;;
51368;SDS011;37459;51.416;5.502;2022-12-16T12:02:46;47.30;;;29.08;;
51368;SDS011;37459;51.416;5.502;2022-12-16T12:05:36;49.72;;;29.83;;
51368;SDS011;37459;51.416;5.502;2022-12-16T12:08:24;43.85;;;27.27;;
51368;SDS011;37459;51.416;5.502;2022-12-16T12:11:16;50.58;;;28.70;;
51368;SDS011;37459;51.416;5.502;2022-12-16T12:14:06;44.65;;;28.23;;
51368;SDS011;37459;51.416;5.502;2022-12-16T12:17:04;46.38;;;27.75;;
51368;SDS011;37459;51.416;5.502;2022-12-16T12:20:02;46.45;;;27.67;;
51368;SDS011;37459;51.416;5.502;2022-12-16T12:23:01;42.85;;;26.77;;
51368;SDS011;37459;51.416;5.502;2022-12-16T12:25:51;40.70;;;26.23;;
51368;SDS011;37459;51.416;5.502;2022-12-16T12:28:44;43.95;;;27.10;;
51368;SDS011;37459;51.416;5.502;2022-12-16T12:31:34;42.20;;;25.50;;
51368;SDS011;37459;51.416;5.502;2022-12-16T12:34:24;44.00;;;25.05;;
51368;SDS011;37459;51.416;5.502;2022-12-16T12:37:16;40.05;;;25.80;;
51368;SDS011;37459;51.416;5.502;2022-12-16T12:40:13;42.65;;;25.55;;
51368;SDS011;37459;51.416;5.502;2022-12-16T12:43:05;36.53;;;22.75;;
51368;SDS011;37459;51.416;5.502;2022-12-16T12:46:01;46.10;;;24.87;;
51368;SDS011;37459;51.416;5.502;2022-12-16T12:48:51;36.92;;;23.60;;
51368;SDS011;37459;51.416;5.502;2022-12-16T12:51:42;41.67;;;23.95;;
51368;SDS011;37459;51.416;5.502;2022-12-16T12:54:35;41.03;;;22.88;;
51368;SDS011;37459;51.416;5.502;2022-12-16T12:57:24;38.28;;;22.50;;
51368;SDS011;37459;51.416;5.502;2022-12-16T13:00:13;46.40;;;23.73;;
51368;SDS011;37459;51.416;5.502;2022-12-16T13:03:00;33.33;;;20.58;;
51368;SDS011;37459;51.416;5.502;2022-12-16T13:05:50;38.58;;;22.77;;
51368;SDS011;37459;51.416;5.502;2022-12-16T13:08:53;37.95;;;22.52;;
51368;SDS011;37459;51.416;5.502;2022-12-16T13:11:39;34.55;;;21.80;;
51368;SDS011;37459;51.416;5.502;2022-12-16T13:21:36;35.90;;;22.48;;
51368;SDS011;37459;51.416;5.502;2022-12-16T13:24:36;36.58;;;22.52;;
51368;SDS011;37459;51.416;5.502;2022-12-16T13:27:26;37.67;;;23.00;;
51368;SDS011;37459;51.416;5.502;2022-12-16T13:33:03;36.92;;;21.98;;
51368;SDS011;37459;51.416;5.502;2022-12-16T13:35:53;38.00;;;23.55;;
51368;SDS011;37459;51.416;5.502;2022-12-16T13:38:45;41.63;;;24.45;;
51368;SDS011;37459;51.416;5.502;2022-12-16T13:44:54;35.03;;;21.25;;
51368;SDS011;37459;51.416;5.502;2022-12-16T13:50:43;39.30;;;22.13;;
51368;SDS011;37459;51.416;5.502;2022-12-16T13:53:40;34.38;;;21.83;;
51368;SDS011;37459;51.416;5.502;2022-12-16T13:56:32;34.72;;;22.23;;
51368;SDS011;37459;51.416;5.502;2022-12-16T13:59:20;35.33;;;21.67;;
51368;SDS011;37459;51.416;5.502;2022-12-16T14:02:16;35.42;;;21.02;;
51368;SDS011;37459;51.416;5.502;2022-12-16T14:05:13;36.33;;;21.40;;
51368;SDS011;37459;51.416;5.502;2022-12-16T14:08:03;34.70;;;21.48;;
51368;SDS011;37459;51.416;5.502;2022-12-16T14:10:53;36.72;;;21.60;;
51368;SDS011;37459;51.416;5.502;2022-12-16T14:13:44;33.40;;;21.08;;
51368;SDS011;37459;51.416;5.502;2022-12-16T14:16:35;32.70;;;21.10;;
51368;SDS011;37459;51.416;5.502;2022-12-16T14:19:31;35.50;;;20.52;;
51368;SDS011;37459;51.416;5.502;2022-12-16T14:22:25;38.42;;;22.40;;
51368;SDS011;37459;51.416;5.502;2022-12-16T14:25:23;31.38;;;20.35;;
51368;SDS011;37459;51.416;5.502;2022-12-16T14:28:13;34.80;;;21.10;;
51368;SDS011;37459;51.416;5.502;2022-12-16T14:31:10;31.30;;;20.33;;
51368;SDS011;37459;51.416;5.502;2022-12-16T14:33:58;33.00;;;20.33;;
51368;SDS011;37459;51.416;5.502;2022-12-16T14:36:45;34.08;;;20.58;;
51368;SDS011;37459;51.416;5.502;2022-12-16T14:39:30;30.95;;;20.63;;
51368;SDS011;37459;51.416;5.502;2022-12-16T14:42:20;35.05;;;20.13;;
51368;SDS011;37459;51.416;5.502;2022-12-16T14:45:16;31.55;;;20.02;;
51368;SDS011;37459;51.416;5.502;2022-12-16T14:48:13;32.70;;;20.00;;
51368;SDS011;37459;51.416;5.502;2022-12-16T14:51:21;33.10;;;20.75;;
51368;SDS011;37459;51.416;5.502;2022-12-16T14:54:10;34.22;;;20.35;;
51368;SDS011;37459;51.416;5.502;2022-12-16T14:57:09;33.17;;;20.17;;
51368;SDS011;37459;51.416;5.502;2022-12-16T15:00:00;34.67;;;21.65;;
51368;SDS011;37459;51.416;5.502;2022-12-16T15:02:47;34.05;;;22.13;;
51368;SDS011;37459;51.416;5.502;2022-12-16T15:05:35;31.33;;;20.70;;
51368;SDS011;37459;51.416;5.502;2022-12-16T15:08:21;36.10;;;22.25;;
51368;SDS011;37459;51.416;5.502;2022-12-16T15:11:07;36.28;;;22.35;;
51368;SDS011;37459;51.416;5.502;2022-12-16T15:13:55;33.63;;;21.52;;
51368;SDS011;37459;51.416;5.502;2022-12-16T15:16:40;36.13;;;21.83;;
51368;SDS011;37459;51.416;5.502;2022-12-16T15:19:26;33.25;;;20.27;;
51368;SDS011;37459;51.416;5.502;2022-12-16T15:22:15;32.50;;;20.30;;
51368;SDS011;37459;51.416;5.502;2022-12-16T15:25:00;36.25;;;21.33;;
51368;SDS011;37459;51.416;5.502;2022-12-16T15:27:51;33.42;;;20.55;;
51368;SDS011;37459;51.416;5.502;2022-12-16T15:30:37;34.38;;;21.13;;
51368;SDS011;37459;51.416;5.502;2022-12-16T15:33:23;34.35;;;21.52;;
51368;SDS011;37459;51.416;5.502;2022-12-16T15:36:22;35.13;;;21.95;;
51368;SDS011;37459;51.416;5.502;2022-12-16T15:39:10;33.45;;;20.27;;
51368;SDS011;37459;51.416;5.502;2022-12-16T15:42:02;31.63;;;20.35;;
51368;SDS011;37459;51.416;5.502;2022-12-16T15:44:47;31.58;;;20.05;;
51368;SDS011;37459;51.416;5.502;2022-12-16T15:47:33;32.88;;;20.63;;
51368;SDS011;37459;51.416;5.502;2022-12-16T15:50:20;33.20;;;20.63;;
51368;SDS011;37459;51.416;5.502;2022-12-16T15:53:13;38.45;;;21.67;;
51368;SDS011;37459;51.416;5.502;2022-12-16T15:56:00;31.55;;;20.25;;
51368;SDS011;37459;51.416;5.502;2022-12-16T15:58:44;35.03;;;21.03;;
51368;SDS011;37459;51.416;5.502;2022-12-16T16:01:38;30.20;;;19.35;;
51368;SDS011;37459;51.416;5.502;2022-12-16T16:04:24;33.05;;;21.35;;
51368;SDS011;37459;51.416;5.502;2022-12-16T16:07:12;37.05;;;22.80;;
51368;SDS011;37459;51.416;5.502;2022-12-16T16:10:01;38.03;;;24.08;;
51368;SDS011;37459;51.416;5.502;2022-12-16T16:12:52;35.28;;;23.13;;
51368;SDS011;37459;51.416;5.502;2022-12-16T16:15:36;36.00;;;22.17;;
51368;SDS011;37459;51.416;5.502;2022-12-16T16:18:20;33.70;;;21.75;;
51368;SDS011;37459;51.416;5.502;2022-12-16T16:21:12;35.53;;;22.90;;
51368;SDS011;37459;51.416;5.502;2022-12-16T16:23:57;33.60;;;21.65;;